sensor_id;sensor_type;location;lat;lon;timestamp;temperature;humidity
3268;DHT22;1646;52.450;13.326;2023-12-07T00:01:22;3.30;99.90
3268;DHT22;1646;52.450;13.326;2023-12-07T00:06:20;3.20;99.90
3268;DHT22;1646;52.450;13.326;2023-12-07T00:11:19;3.30;99.90
3268;DHT22;1646;52.450;13.326;2023-12-07T00:16:18;3.30;99.90
3268;DHT22;1646;52.450;13.326;2023-12-07T00:21:17;3.40;99.90
3268;DHT22;1646;52.450;13.326;2023-12-07T00:26:15;3.20;99.90
3268;DHT22;1646;52.450;13.326;2023-12-07T00:31:13;3.30;99.90
3268;DHT22;1646;52.450;13.326;2023-12-07T00:36:13;3.40;99.90
3268;DHT22;1646;52.450;13.326;2023-12-07T00:41:11;3.40;99.90
3268;DHT22;1646;52.450;13.326;2023-12-07T00:46:11;3.20;99.90
3268;DHT22;1646;52.450;13.326;2023-12-07T00:51:10;3.20;99.90
3268;DHT22;1646;52.450;13.326;2023-12-07T00:56:10;3.20;99.90
3268;DHT22;1646;52.450;13.326;2023-12-07T01:01:08;3.30;99.90
3268;DHT22;1646;52.450;13.326;2023-12-07T01:06:06;3.20;99.90
3268;DHT22;1646;52.450;13.326;2023-12-07T01:11:07;3.30;99.90
3268;DHT22;1646;52.450;13.326;2023-12-07T01:16:07;3.20;99.90
3268;DHT22;1646;52.450;13.326;2023-12-07T01:21:05;3.20;99.90
3268;DHT22;1646;52.450;13.326;2023-12-07T01:26:04;3.30;99.90
3268;DHT22;1646;52.450;13.326;2023-12-07T01:31:04;3.40;99.90
3268;DHT22;1646;52.450;13.326;2023-12-07T01:36:04;3.50;99.90
3268;DHT22;1646;52.450;13.326;2023-12-07T01:41:02;3.40;99.90
3268;DHT22;1646;52.450;13.326;2023-12-07T01:46:02;3.30;99.90
3268;DHT22;1646;52.450;13.326;2023-12-07T01:51:01;3.30;99.90
3268;DHT22;1646;52.450;13.326;2023-12-07T01:56:02;3.30;99.90
3268;DHT22;1646;52.450;13.326;2023-12-07T02:01:01;3.30;99.90
3268;DHT22;1646;52.450;13.326;2023-12-07T02:06:00;3.20;99.90
3268;DHT22;1646;52.450;13.326;2023-12-07T02:10:59;3.20;99.90
3268;DHT22;1646;52.450;13.326;2023-12-07T02:16:00;3.20;99.90
3268;DHT22;1646;52.450;13.326;2023-12-07T02:21:11;3.20;99.90
3268;DHT22;1646;52.450;13.326;2023-12-07T02:26:11;3.20;99.90
3268;DHT22;1646;52.450;13.326;2023-12-07T02:31:12;3.30;99.90
3268;DHT22;1646;52.450;13.326;2023-12-07T02:36:13;3.30;99.90
3268;DHT22;1646;52.450;13.326;2023-12-07T02:41:13;3.20;99.90
3268;DHT22;1646;52.450;13.326;2023-12-07T02:46:14;3.20;99.90
3268;DHT22;1646;52.450;13.326;2023-12-07T02:51:13;3.20;99.90
3268;DHT22;1646;52.450;13.326;2023-12-07T02:56:11;3.10;99.90
3268;DHT22;1646;52.450;13.326;2023-12-07T03:01:09;3.10;99.90
3268;DHT22;1646;52.450;13.326;2023-12-07T03:06:09;3.10;99.90
3268;DHT22;1646;52.450;13.326;2023-12-07T03:11:07;3.10;99.90
3268;DHT22;1646;52.450;13.326;2023-12-07T03:16:08;3.10;99.90
3268;DHT22;1646;52.450;13.326;2023-12-07T03:21:08;3.20;99.90
3268;DHT22;1646;52.450;13.326;2023-12-07T03:26:07;3.20;99.90
3268;DHT22;1646;52.450;13.326;2023-12-07T03:31:05;3.20;99.90
3268;DHT22;1646;52.450;13.326;2023-12-07T03:36:04;3.20;99.90
3268;DHT22;1646;52.450;13.326;2023-12-07T03:41:04;3.20;99.90
3268;DHT22;1646;52.450;13.326;2023-12-07T03:46:03;3.20;99.90
3268;DHT22;1646;52.450;13.326;2023-12-07T03:51:02;3.20;99.90
3268;DHT22;1646;52.450;13.326;2023-12-07T03:56:00;3.20;99.90
3268;DHT22;1646;52.450;13.326;2023-12-07T04:01:00;3.20;99.90
3268;DHT22;1646;52.450;13.326;2023-12-07T04:05:58;3.20;99.90
3268;DHT22;1646;52.450;13.326;2023-12-07T04:10:57;3.30;99.90
3268;DHT22;1646;52.450;13.326;2023-12-07T04:15:55;3.40;99.90
3268;DHT22;1646;52.450;13.326;2023-12-07T04:20:55;3.40;99.90
3268;DHT22;1646;52.450;13.326;2023-12-07T04:25:54;3.30;99.90
3268;DHT22;1646;52.450;13.326;2023-12-07T04:30:52;3.30;99.90
3268;DHT22;1646;52.450;13.326;2023-12-07T04:35:51;3.40;99.90
3268;DHT22;1646;52.450;13.326;2023-12-07T04:40:50;3.40;99.90
3268;DHT22;1646;52.450;13.326;2023-12-07T04:45:49;3.40;99.90
3268;DHT22;1646;52.450;13.326;2023-12-07T04:50:47;3.50;99.90
3268;DHT22;1646;52.450;13.326;2023-12-07T04:55:45;3.50;99.90
3268;DHT22;1646;52.450;13.326;2023-12-07T05:00:48;3.50;99.90
3268;DHT22;1646;52.450;13.326;2023-12-07T05:05:47;3.50;99.90
3268;DHT22;1646;52.450;13.326;2023-12-07T05:10:47;3.50;99.90
3268;DHT22;1646;52.450;13.326;2023-12-07T05:15:45;3.40;99.90
3268;DHT22;1646;52.450;13.326;2023-12-07T05:20:45;3.40;99.90
3268;DHT22;1646;52.450;13.326;2023-12-07T05:25:44;3.30;99.90
3268;DHT22;1646;52.450;13.326;2023-12-07T05:30:42;3.30;99.90
3268;DHT22;1646;52.450;13.326;2023-12-07T05:35:45;3.30;99.90
3268;DHT22;1646;52.450;13.326;2023-12-07T05:40:43;3.30;99.90
3268;DHT22;1646;52.450;13.326;2023-12-07T05:45:41;3.30;99.90
3268;DHT22;1646;52.450;13.326;2023-12-07T05:50:39;3.40;99.90
3268;DHT22;1646;52.450;13.326;2023-12-07T05:55:40;3.30;99.90
3268;DHT22;1646;52.450;13.326;2023-12-07T06:00:38;3.30;99.90
3268;DHT22;1646;52.450;13.326;2023-12-07T06:05:37;3.40;99.90
3268;DHT22;1646;52.450;13.326;2023-12-07T06:10:35;3.30;99.90
3268;DHT22;1646;52.450;13.326;2023-12-07T06:15:35;3.20;99.90
3268;DHT22;1646;52.450;13.326;2023-12-07T06:20:34;3.20;99.90
3268;DHT22;1646;52.450;13.326;2023-12-07T06:25:32;3.40;99.90
3268;DHT22;1646;52.450;13.326;2023-12-07T06:30:31;3.30;99.90
3268;DHT22;1646;52.450;13.326;2023-12-07T06:35:30;3.20;99.90
3268;DHT22;1646;52.450;13.326;2023-12-07T06:40:29;3.10;99.90
3268;DHT22;1646;52.450;13.326;2023-12-07T06:45:28;3.10;99.90
3268;DHT22;1646;52.450;13.326;2023-12-07T06:50:26;3.00;99.90
3268;DHT22;1646;52.450;13.326;2023-12-07T06:55:26;3.00;99.90
3268;DHT22;1646;52.450;13.326;2023-12-07T07:00:24;3.10;99.90
3268;DHT22;1646;52.450;13.326;2023-12-07T07:05:23;3.20;99.90
3268;DHT22;1646;52.450;13.326;2023-12-07T07:10:21;3.20;99.90
3268;DHT22;1646;52.450;13.326;2023-12-07T07:15:22;3.20;99.90
3268;DHT22;1646;52.450;13.326;2023-12-07T07:20:22;3.40;99.90
3268;DHT22;1646;52.450;13.326;2023-12-07T07:25:20;3.50;99.90
3268;DHT22;1646;52.450;13.326;2023-12-07T07:30:19;3.60;99.90
3268;DHT22;1646;52.450;13.326;2023-12-07T07:35:18;3.60;99.90
3268;DHT22;1646;52.450;13.326;2023-12-07T07:40:17;3.50;99.90
3268;DHT22;1646;52.450;13.326;2023-12-07T07:45:15;3.50;99.90
3268;DHT22;1646;52.450;13.326;2023-12-07T07:50:14;3.60;99.90
3268;DHT22;1646;52.450;13.326;2023-12-07T07:55:15;3.60;99.90
3268;DHT22;1646;52.450;13.326;2023-12-07T08:00:14;3.50;99.90
3268;DHT22;1646;52.450;13.326;2023-12-07T08:05:12;3.50;99.90
3268;DHT22;1646;52.450;13.326;2023-12-07T08:10:11;3.60;99.90
3268;DHT22;1646;52.450;13.326;2023-12-07T08:15:11;3.60;99.90
3268;DHT22;1646;52.450;13.326;2023-12-07T08:20:11;3.70;99.90
3268;DHT22;1646;52.450;13.326;2023-12-07T08:25:10;3.60;99.90
3268;DHT22;1646;52.450;13.326;2023-12-07T08:30:11;3.50;99.90
3268;DHT22;1646;52.450;13.326;2023-12-07T08:35:09;3.50;99.90
3268;DHT22;1646;52.450;13.326;2023-12-07T08:40:08;3.50;99.90
3268;DHT22;1646;52.450;13.326;2023-12-07T08:45:11;3.50;99.90
3268;DHT22;1646;52.450;13.326;2023-12-07T08:50:10;3.50;99.90
3268;DHT22;1646;52.450;13.326;2023-12-07T08:55:09;3.50;99.90
3268;DHT22;1646;52.450;13.326;2023-12-07T09:00:08;3.40;99.90
3268;DHT22;1646;52.450;13.326;2023-12-07T09:05:09;3.40;99.90
3268;DHT22;1646;52.450;13.326;2023-12-07T09:10:08;3.40;99.90
3268;DHT22;1646;52.450;13.326;2023-12-07T09:15:08;3.30;99.90
3268;DHT22;1646;52.450;13.326;2023-12-07T09:20:10;3.20;99.90
3268;DHT22;1646;52.450;13.326;2023-12-07T09:25:11;3.40;99.90
3268;DHT22;1646;52.450;13.326;2023-12-07T09:30:10;3.30;99.90
3268;DHT22;1646;52.450;13.326;2023-12-07T09:35:11;3.40;99.90
3268;DHT22;1646;52.450;13.326;2023-12-07T09:40:16;3.50;99.90
3268;DHT22;1646;52.450;13.326;2023-12-07T09:45:17;3.50;99.90
3268;DHT22;1646;52.450;13.326;2023-12-07T09:50:19;3.40;99.90
3268;DHT22;1646;52.450;13.326;2023-12-07T09:55:19;3.20;99.90
3268;DHT22;1646;52.450;13.326;2023-12-07T10:00:19;3.20;99.90
3268;DHT22;1646;52.450;13.326;2023-12-07T10:05:19;3.20;99.90
3268;DHT22;1646;52.450;13.326;2023-12-07T10:10:18;3.20;99.90
3268;DHT22;1646;52.450;13.326;2023-12-07T10:15:18;3.20;99.90
3268;DHT22;1646;52.450;13.326;2023-12-07T10:20:17;3.30;99.90
3268;DHT22;1646;52.450;13.326;2023-12-07T10:25:21;3.40;99.90
3268;DHT22;1646;52.450;13.326;2023-12-07T10:30:21;3.60;99.90
3268;DHT22;1646;52.450;13.326;2023-12-07T10:35:22;3.60;99.90
3268;DHT22;1646;52.450;13.326;2023-12-07T10:40:22;3.70;99.90
3268;DHT22;1646;52.450;13.326;2023-12-07T10:45:22;3.70;99.90
3268;DHT22;1646;52.450;13.326;2023-12-07T10:50:23;3.90;99.90
3268;DHT22;1646;52.450;13.326;2023-12-07T10:55:28;3.90;99.90
3268;DHT22;1646;52.450;13.326;2023-12-07T11:00:28;3.90;99.90
3268;DHT22;1646;52.450;13.326;2023-12-07T11:05:40;4.00;99.90
3268;DHT22;1646;52.450;13.326;2023-12-07T11:10:45;3.90;99.90
3268;DHT22;1646;52.450;13.326;2023-12-07T11:15:46;3.80;99.90
3268;DHT22;1646;52.450;13.326;2023-12-07T11:20:45;3.60;99.90
3268;DHT22;1646;52.450;13.326;2023-12-07T11:25:46;3.70;99.90
3268;DHT22;1646;52.450;13.326;2023-12-07T11:30:46;3.70;99.90
3268;DHT22;1646;52.450;13.326;2023-12-07T11:36:04;3.60;99.90
3268;DHT22;1646;52.450;13.326;2023-12-07T11:41:05;3.50;99.90
3268;DHT22;1646;52.450;13.326;2023-12-07T11:46:03;3.50;99.90
3268;DHT22;1646;52.450;13.326;2023-12-07T11:51:04;3.60;99.90
3268;DHT22;1646;52.450;13.326;2023-12-07T11:56:07;3.70;99.90
3268;DHT22;1646;52.450;13.326;2023-12-07T12:01:07;3.70;99.90
3268;DHT22;1646;52.450;13.326;2023-12-07T12:06:07;3.80;99.90
3268;DHT22;1646;52.450;13.326;2023-12-07T12:11:10;3.70;99.90
3268;DHT22;1646;52.450;13.326;2023-12-07T12:16:09;3.70;99.90
3268;DHT22;1646;52.450;13.326;2023-12-07T12:21:08;3.70;99.90
3268;DHT22;1646;52.450;13.326;2023-12-07T12:26:09;3.70;99.90
3268;DHT22;1646;52.450;13.326;2023-12-07T12:31:09;3.60;99.90
3268;DHT22;1646;52.450;13.326;2023-12-07T12:36:09;3.80;99.90
3268;DHT22;1646;52.450;13.326;2023-12-07T12:41:10;3.80;99.90
3268;DHT22;1646;52.450;13.326;2023-12-07T12:46:09;3.90;99.90
3268;DHT22;1646;52.450;13.326;2023-12-07T12:51:13;3.90;99.90
3268;DHT22;1646;52.450;13.326;2023-12-07T12:56:13;4.00;99.90
3268;DHT22;1646;52.450;13.326;2023-12-07T13:01:12;4.00;99.90
3268;DHT22;1646;52.450;13.326;2023-12-07T13:06:11;4.00;99.90
3268;DHT22;1646;52.450;13.326;2023-12-07T13:11:16;4.20;99.90
3268;DHT22;1646;52.450;13.326;2023-12-07T13:16:15;4.10;99.90
3268;DHT22;1646;52.450;13.326;2023-12-07T13:21:14;4.10;99.90
3268;DHT22;1646;52.450;13.326;2023-12-07T13:26:14;4.20;99.90
3268;DHT22;1646;52.450;13.326;2023-12-07T13:31:13;4.20;99.90
3268;DHT22;1646;52.450;13.326;2023-12-07T13:36:12;3.80;99.90
3268;DHT22;1646;52.450;13.326;2023-12-07T13:41:10;3.70;99.90
3268;DHT22;1646;52.450;13.326;2023-12-07T13:46:09;3.70;99.90
3268;DHT22;1646;52.450;13.326;2023-12-07T13:51:09;3.70;99.90
3268;DHT22;1646;52.450;13.326;2023-12-07T13:56:09;3.60;99.90
3268;DHT22;1646;52.450;13.326;2023-12-07T14:01:07;3.60;99.90
3268;DHT22;1646;52.450;13.326;2023-12-07T14:06:07;3.70;99.90
3268;DHT22;1646;52.450;13.326;2023-12-07T14:11:19;3.80;99.90
3268;DHT22;1646;52.450;13.326;2023-12-07T14:16:17;4.00;99.90
3268;DHT22;1646;52.450;13.326;2023-12-07T14:21:33;4.00;99.90
3268;DHT22;1646;52.450;13.326;2023-12-07T14:26:42;3.90;99.90
3268;DHT22;1646;52.450;13.326;2023-12-07T14:31:40;3.90;99.90
3268;DHT22;1646;52.450;13.326;2023-12-07T14:36:38;4.10;99.90
3268;DHT22;1646;52.450;13.326;2023-12-07T14:41:40;4.20;99.90
3268;DHT22;1646;52.450;13.326;2023-12-07T14:46:38;4.20;99.90
3268;DHT22;1646;52.450;13.326;2023-12-07T14:51:36;4.20;99.90
3268;DHT22;1646;52.450;13.326;2023-12-07T14:56:35;4.20;99.90
3268;DHT22;1646;52.450;13.326;2023-12-07T15:01:34;4.20;99.90
3268;DHT22;1646;52.450;13.326;2023-12-07T15:06:33;4.20;99.90
3268;DHT22;1646;52.450;13.326;2023-12-07T15:11:32;4.10;99.90
3268;DHT22;1646;52.450;13.326;2023-12-07T15:16:30;4.20;99.90
3268;DHT22;1646;52.450;13.326;2023-12-07T15:21:31;4.20;99.90
3268;DHT22;1646;52.450;13.326;2023-12-07T15:26:29;4.00;99.90
3268;DHT22;1646;52.450;13.326;2023-12-07T15:31:27;3.90;99.90
3268;DHT22;1646;52.450;13.326;2023-12-07T15:36:25;3.80;99.90
3268;DHT22;1646;52.450;13.326;2023-12-07T15:41:25;3.70;99.90
3268;DHT22;1646;52.450;13.326;2023-12-07T15:46:24;3.80;99.90
3268;DHT22;1646;52.450;13.326;2023-12-07T15:51:23;3.90;99.90
3268;DHT22;1646;52.450;13.326;2023-12-07T15:56:21;4.00;99.90
3268;DHT22;1646;52.450;13.326;2023-12-07T16:01:39;4.00;99.90
3268;DHT22;1646;52.450;13.326;2023-12-07T16:06:37;4.10;99.90
3268;DHT22;1646;52.450;13.326;2023-12-07T16:11:36;4.10;99.90
3268;DHT22;1646;52.450;13.326;2023-12-07T16:16:34;4.00;99.90
3268;DHT22;1646;52.450;13.326;2023-12-07T16:21:35;4.00;99.90
3268;DHT22;1646;52.450;13.326;2023-12-07T16:26:36;4.00;99.90
3268;DHT22;1646;52.450;13.326;2023-12-07T16:31:34;4.10;99.90
3268;DHT22;1646;52.450;13.326;2023-12-07T16:36:34;4.20;99.90
3268;DHT22;1646;52.450;13.326;2023-12-07T16:41:33;4.30;99.90
3268;DHT22;1646;52.450;13.326;2023-12-07T16:46:44;4.20;99.90
3268;DHT22;1646;52.450;13.326;2023-12-07T16:51:44;4.10;99.90
3268;DHT22;1646;52.450;13.326;2023-12-07T16:56:42;3.90;99.90
3268;DHT22;1646;52.450;13.326;2023-12-07T17:01:40;3.80;99.90
3268;DHT22;1646;52.450;13.326;2023-12-07T17:06:39;3.80;99.90
3268;DHT22;1646;52.450;13.326;2023-12-07T17:11:54;3.90;99.90
3268;DHT22;1646;52.450;13.326;2023-12-07T17:16:52;3.90;99.90
3268;DHT22;1646;52.450;13.326;2023-12-07T17:21:51;3.70;99.90
3268;DHT22;1646;52.450;13.326;2023-12-07T17:26:52;3.70;99.90
3268;DHT22;1646;52.450;13.326;2023-12-07T17:31:51;3.70;99.90
3268;DHT22;1646;52.450;13.326;2023-12-07T17:36:49;3.90;99.90
3268;DHT22;1646;52.450;13.326;2023-12-07T17:41:48;4.10;99.90
3268;DHT22;1646;52.450;13.326;2023-12-07T17:46:47;4.10;99.90
3268;DHT22;1646;52.450;13.326;2023-12-07T17:51:46;4.20;99.90
3268;DHT22;1646;52.450;13.326;2023-12-07T17:56:45;4.10;99.90
3268;DHT22;1646;52.450;13.326;2023-12-07T18:01:44;4.20;99.90
3268;DHT22;1646;52.450;13.326;2023-12-07T18:06:44;4.20;99.90
3268;DHT22;1646;52.450;13.326;2023-12-07T18:11:44;4.10;99.90
3268;DHT22;1646;52.450;13.326;2023-12-07T18:16:42;4.00;99.90
3268;DHT22;1646;52.450;13.326;2023-12-07T18:21:41;4.00;99.90
3268;DHT22;1646;52.450;13.326;2023-12-07T18:26:40;4.00;99.90
3268;DHT22;1646;52.450;13.326;2023-12-07T18:31:39;4.00;99.90
3268;DHT22;1646;52.450;13.326;2023-12-07T18:36:37;4.00;99.90
3268;DHT22;1646;52.450;13.326;2023-12-07T18:41:35;4.10;99.90
3268;DHT22;1646;52.450;13.326;2023-12-07T18:46:37;4.10;99.90
3268;DHT22;1646;52.450;13.326;2023-12-07T18:51:35;4.30;99.90
3268;DHT22;1646;52.450;13.326;2023-12-07T18:56:33;4.20;99.90
3268;DHT22;1646;52.450;13.326;2023-12-07T19:01:32;4.20;99.90
3268;DHT22;1646;52.450;13.326;2023-12-07T19:06:32;4.40;99.90
3268;DHT22;1646;52.450;13.326;2023-12-07T19:11:30;4.30;99.90
3268;DHT22;1646;52.450;13.326;2023-12-07T19:16:29;4.30;99.90
3268;DHT22;1646;52.450;13.326;2023-12-07T19:21:27;4.30;99.90
3268;DHT22;1646;52.450;13.326;2023-12-07T19:26:27;4.30;99.90
3268;DHT22;1646;52.450;13.326;2023-12-07T19:31:27;4.20;99.90
3268;DHT22;1646;52.450;13.326;2023-12-07T19:36:25;4.20;99.90
3268;DHT22;1646;52.450;13.326;2023-12-07T19:41:23;4.20;99.90
3268;DHT22;1646;52.450;13.326;2023-12-07T19:46:23;4.20;99.90
3268;DHT22;1646;52.450;13.326;2023-12-07T19:51:21;4.20;99.90
3268;DHT22;1646;52.450;13.326;2023-12-07T19:56:20;4.20;99.90
3268;DHT22;1646;52.450;13.326;2023-12-07T20:01:18;4.10;99.90
3268;DHT22;1646;52.450;13.326;2023-12-07T20:06:18;4.20;99.90
3268;DHT22;1646;52.450;13.326;2023-12-07T20:11:27;4.30;99.90
3268;DHT22;1646;52.450;13.326;2023-12-07T20:16:25;4.30;99.90
3268;DHT22;1646;52.450;13.326;2023-12-07T20:21:25;4.30;99.90
3268;DHT22;1646;52.450;13.326;2023-12-07T20:26:23;4.30;99.90
3268;DHT22;1646;52.450;13.326;2023-12-07T20:31:22;4.20;99.90
3268;DHT22;1646;52.450;13.326;2023-12-07T20:36:20;4.20;99.90
3268;DHT22;1646;52.450;13.326;2023-12-07T20:41:20;4.10;99.90
3268;DHT22;1646;52.450;13.326;2023-12-07T20:46:18;4.10;99.90
3268;DHT22;1646;52.450;13.326;2023-12-07T20:51:17;4.10;99.90
3268;DHT22;1646;52.450;13.326;2023-12-07T20:56:15;4.00;99.90
3268;DHT22;1646;52.450;13.326;2023-12-07T21:01:16;3.90;99.90
3268;DHT22;1646;52.450;13.326;2023-12-07T21:06:15;4.00;99.90
3268;DHT22;1646;52.450;13.326;2023-12-07T21:11:23;4.00;99.90
3268;DHT22;1646;52.450;13.326;2023-12-07T21:16:23;3.90;99.90
3268;DHT22;1646;52.450;13.326;2023-12-07T21:21:21;3.90;99.90
3268;DHT22;1646;52.450;13.326;2023-12-07T21:26:19;3.90;99.90
3268;DHT22;1646;52.450;13.326;2023-12-07T21:31:20;4.00;99.90
3268;DHT22;1646;52.450;13.326;2023-12-07T21:36:20;4.00;99.90
3268;DHT22;1646;52.450;13.326;2023-12-07T21:41:18;4.10;99.90
3268;DHT22;1646;52.450;13.326;2023-12-07T21:46:17;4.00;99.90
3268;DHT22;1646;52.450;13.326;2023-12-07T21:51:15;4.00;99.90
3268;DHT22;1646;52.450;13.326;2023-12-07T21:56:15;4.00;99.90
3268;DHT22;1646;52.450;13.326;2023-12-07T22:01:15;4.00;99.90
3268;DHT22;1646;52.450;13.326;2023-12-07T22:06:22;4.00;99.90
3268;DHT22;1646;52.450;13.326;2023-12-07T22:11:22;3.90;99.90
3268;DHT22;1646;52.450;13.326;2023-12-07T22:16:22;3.90;99.90
3268;DHT22;1646;52.450;13.326;2023-12-07T22:21:21;3.80;99.90
3268;DHT22;1646;52.450;13.326;2023-12-07T22:26:19;3.70;99.90
3268;DHT22;1646;52.450;13.326;2023-12-07T22:31:19;3.50;99.90
3268;DHT22;1646;52.450;13.326;2023-12-07T22:36:17;3.50;99.90
3268;DHT22;1646;52.450;13.326;2023-12-07T22:41:16;3.50;99.90
3268;DHT22;1646;52.450;13.326;2023-12-07T22:46:14;3.50;99.90
3268;DHT22;1646;52.450;13.326;2023-12-07T22:51:14;3.60;99.90
3268;DHT22;1646;52.450;13.326;2023-12-07T22:56:12;3.50;99.90
3268;DHT22;1646;52.450;13.326;2023-12-07T23:01:10;3.40;99.90
3268;DHT22;1646;52.450;13.326;2023-12-07T23:06:08;3.40;99.90
3268;DHT22;1646;52.450;13.326;2023-12-07T23:11:08;3.40;99.90
3268;DHT22;1646;52.450;13.326;2023-12-07T23:16:07;3.40;99.90
3268;DHT22;1646;52.450;13.326;2023-12-07T23:21:10;3.40;99.90
3268;DHT22;1646;52.450;13.326;2023-12-07T23:26:10;3.40;99.90
3268;DHT22;1646;52.450;13.326;2023-12-07T23:31:08;3.40;99.90
3268;DHT22;1646;52.450;13.326;2023-12-07T23:36:07;3.30;99.90
3268;DHT22;1646;52.450;13.326;2023-12-07T23:41:05;3.20;99.90
3268;DHT22;1646;52.450;13.326;2023-12-07T23:46:08;3.10;99.90
3268;DHT22;1646;52.450;13.326;2023-12-07T23:51:08;3.20;99.90
3268;DHT22;1646;52.450;13.326;2023-12-07T23:56:08;3.20;99.90
